createdAt,value
2022-12-14T00:02:06.719Z,-2.88
2022-12-14T00:04:35.161Z,-2.90
2022-12-14T00:07:03.515Z,-2.85
2022-12-14T00:09:31.885Z,-2.81
2022-12-14T00:12:00.205Z,-2.75
2022-12-14T00:14:28.531Z,-2.72
2022-12-14T00:16:58.411Z,-2.68
2022-12-14T00:19:26.957Z,-2.60
2022-12-14T00:21:56.052Z,-2.66
2022-12-14T00:24:24.412Z,-2.64
2022-12-14T00:26:52.823Z,-2.59
2022-12-14T00:29:21.225Z,-2.61
2022-12-14T00:31:51.093Z,-2.61
2022-12-14T00:34:20.861Z,-2.65
2022-12-14T00:36:49.196Z,-2.64
2022-12-14T00:39:17.720Z,-2.64
2022-12-14T00:41:46.063Z,-2.58
2022-12-14T00:44:14.403Z,-2.54
2022-12-14T00:46:42.802Z,-2.57
2022-12-14T00:49:11.784Z,-2.55
2022-12-14T00:51:41.462Z,-2.57
2022-12-14T00:54:09.990Z,-2.56
2022-12-14T00:56:38.375Z,-2.54
2022-12-14T00:59:06.856Z,-2.56
2022-12-14T01:01:35.584Z,-2.54
2022-12-14T01:04:17.997Z,-2.50
2022-12-14T01:06:49.419Z,-2.56
2022-12-14T01:09:19.152Z,-2.50
2022-12-14T01:11:47.804Z,-2.46
2022-12-14T01:14:20.184Z,-2.54
2022-12-14T01:16:48.886Z,-2.46
2022-12-14T01:19:17.703Z,-2.43
2022-12-14T01:21:47.420Z,-2.37
2022-12-14T01:24:15.778Z,-2.37
2022-12-14T01:26:44.116Z,-2.45
2022-12-14T01:29:13.121Z,-2.39
2022-12-14T01:31:41.560Z,-2.37
2022-12-14T01:34:11.020Z,-2.49
2022-12-14T01:36:39.915Z,-2.49
2022-12-14T01:39:14.509Z,-2.51
2022-12-14T01:41:45.589Z,-1.79
2022-12-14T01:44:54.729Z,-1.29
2022-12-14T01:47:34.769Z,-1.27
2022-12-14T01:50:12.208Z,-1.02
2022-12-14T01:52:43.785Z,-1.32
2022-12-14T01:55:18.079Z,-1.08
2022-12-14T01:57:51.238Z,-1.87
2022-12-14T02:00:19.938Z,-2.03
2022-12-14T02:02:54.535Z,-2.17
2022-12-14T02:05:25.161Z,-2.41
2022-12-14T02:07:55.565Z,-2.44
2022-12-14T02:10:29.124Z,-2.50
2022-12-14T02:13:04.913Z,-2.59
2022-12-14T02:15:35.041Z,-2.59
2022-12-14T02:18:07.271Z,-2.52
2022-12-14T02:20:43.829Z,-2.49
2022-12-14T02:23:49.850Z,-2.44
2022-12-14T02:27:16.745Z,-2.57
2022-12-14T02:30:07.563Z,-2.58
2022-12-14T02:33:00.516Z,-2.62
2022-12-14T02:35:40.036Z,-2.61
2022-12-14T02:38:21.624Z,-2.58
2022-12-14T02:41:03.198Z,-2.60
2022-12-14T02:43:37.126Z,-2.70
2022-12-14T02:46:20.244Z,-2.60
2022-12-14T02:48:54.525Z,-2.53
2022-12-14T02:51:29.532Z,-2.50
2022-12-14T02:54:05.065Z,-2.66
2022-12-14T02:56:40.323Z,-2.66
2022-12-14T02:59:10.175Z,-2.65
2022-12-14T03:01:41.332Z,-2.62
2022-12-14T03:04:10.095Z,-2.54
2022-12-14T03:06:38.507Z,-2.53
2022-12-14T03:09:11.173Z,-2.43
2022-12-14T03:11:48.076Z,-2.34
2022-12-14T03:14:24.091Z,-2.55
2022-12-14T03:16:54.850Z,-2.56
2022-12-14T03:19:28.119Z,-2.72
2022-12-14T03:22:00.755Z,-2.64
2022-12-14T03:24:35.514Z,-2.63
2022-12-14T03:27:09.899Z,-2.58
2022-12-14T03:29:44.044Z,-2.52
2022-12-14T03:32:19.572Z,-2.47
2022-12-14T03:34:54.050Z,-2.57
2022-12-14T03:37:31.240Z,-2.57
2022-12-14T03:39:59.920Z,-2.65
2022-12-14T03:42:35.470Z,-2.73
2022-12-14T03:45:18.330Z,-2.77
2022-12-14T03:48:01.639Z,-2.59
2022-12-14T03:50:36.510Z,-2.65
2022-12-14T03:53:12.719Z,-2.66
2022-12-14T03:55:49.199Z,-2.62
2022-12-14T03:58:34.812Z,-2.62
2022-12-14T04:01:12.680Z,-2.56
2022-12-14T04:03:52.589Z,-2.55
2022-12-14T04:06:31.301Z,-2.43
2022-12-14T04:09:13.632Z,-2.45
2022-12-14T04:12:05.649Z,-2.51
2022-12-14T04:14:56.267Z,-2.40
2022-12-14T04:17:49.042Z,-2.40
2022-12-14T04:20:24.054Z,-2.35
2022-12-14T04:22:59.778Z,-2.33
2022-12-14T04:25:52.124Z,-2.32
2022-12-14T04:28:48.104Z,-2.23
2022-12-14T04:31:21.414Z,-2.30
2022-12-14T04:33:55.535Z,-2.25
2022-12-14T04:36:31.951Z,-2.27
2022-12-14T04:39:05.707Z,-2.28
2022-12-14T04:41:39.434Z,-2.32
2022-12-14T04:44:15.369Z,-2.32
2022-12-14T04:46:45.390Z,-2.26
2022-12-14T04:49:20.842Z,-2.25
2022-12-14T04:51:58.224Z,-2.36
2022-12-14T04:54:39.469Z,-2.38
2022-12-14T04:57:19.108Z,-2.34
2022-12-14T04:59:48.685Z,-2.36
2022-12-14T05:02:24.618Z,-2.43
2022-12-14T05:05:01.932Z,-2.48
2022-12-14T05:07:42.400Z,-2.39
2022-12-14T05:10:16.237Z,-2.36
2022-12-14T05:12:49.719Z,-2.40
2022-12-14T05:15:23.490Z,-2.40
2022-12-14T05:17:53.257Z,-2.34
2022-12-14T05:20:24.469Z,-2.37
2022-12-14T05:22:54.391Z,-2.36
2022-12-14T05:25:22.896Z,-2.32
2022-12-14T05:27:51.332Z,-2.34
2022-12-14T05:30:19.980Z,-2.37
2022-12-14T05:32:48.429Z,-2.35
2022-12-14T05:35:17.234Z,-2.34
2022-12-14T05:37:45.684Z,-2.38
2022-12-14T05:40:19.479Z,-2.35
2022-12-14T05:42:53.898Z,-2.33
2022-12-14T05:45:23.958Z,-2.33
2022-12-14T05:47:52.293Z,-2.33
2022-12-14T05:50:20.639Z,-2.32
2022-12-14T05:52:48.999Z,-2.27
2022-12-14T05:55:18.808Z,-2.24
2022-12-14T05:57:47.134Z,-2.21
2022-12-14T06:00:16.948Z,-2.22
2022-12-14T06:02:45.463Z,-2.27
2022-12-14T06:05:13.895Z,-2.21
2022-12-14T06:07:42.262Z,-2.31
2022-12-14T06:10:11.132Z,-2.32
2022-12-14T06:12:40.913Z,-2.33
2022-12-14T06:15:10.286Z,-2.26
2022-12-14T06:17:38.655Z,-2.28
2022-12-14T06:20:08.117Z,-2.25
2022-12-14T06:22:36.452Z,-2.21
2022-12-14T06:25:05.703Z,-2.25
2022-12-14T06:27:34.077Z,-2.28
2022-12-14T06:30:04.087Z,-2.15
2022-12-14T06:32:32.477Z,-2.15
2022-12-14T06:35:00.873Z,-2.20
2022-12-14T06:37:32.669Z,-2.19
2022-12-14T06:40:01.043Z,-2.19
2022-12-14T06:42:29.381Z,-2.20
2022-12-14T06:44:57.763Z,-2.16
2022-12-14T06:47:28.333Z,-2.20
2022-12-14T06:49:56.744Z,-2.23
2022-12-14T06:52:26.912Z,-2.19
2022-12-14T06:54:56.042Z,-2.14
2022-12-14T06:57:24.350Z,-2.16
2022-12-14T06:59:52.747Z,-2.13
2022-12-14T07:02:21.283Z,-2.14
2022-12-14T07:04:51.152Z,-2.00
2022-12-14T07:07:19.496Z,-1.98
2022-12-14T07:09:47.835Z,-1.97
2022-12-14T07:12:16.582Z,-1.89
2022-12-14T07:14:44.936Z,-1.93
2022-12-14T07:17:13.270Z,-1.88
2022-12-14T07:19:41.687Z,-1.96
2022-12-14T07:22:11.480Z,-1.90
2022-12-14T07:24:39.888Z,-1.88
2022-12-14T07:27:09.231Z,-1.87
2022-12-14T07:29:37.585Z,-1.88
2022-12-14T07:32:06.478Z,-1.82
2022-12-14T07:34:34.942Z,-1.87
2022-12-14T07:37:03.276Z,-1.85
2022-12-14T07:39:33.290Z,-1.85
2022-12-14T07:42:01.662Z,-1.84
2022-12-14T07:44:31.176Z,-1.91
2022-12-14T07:46:59.585Z,-1.77
2022-12-14T07:49:28.032Z,-1.80
2022-12-14T07:51:56.411Z,-1.81
2022-12-14T07:54:26.432Z,-1.85
2022-12-14T07:56:56.294Z,-1.82
2022-12-14T07:59:24.619Z,-1.69
2022-12-14T08:01:55.715Z,-1.66
2022-12-14T08:04:24.317Z,-1.62
2022-12-14T08:06:52.717Z,-1.53
2022-12-14T08:09:21.265Z,-1.48
2022-12-14T08:11:49.654Z,-1.59
2022-12-14T08:14:20.266Z,-1.58
2022-12-14T08:16:50.192Z,-1.54
2022-12-14T08:19:20.049Z,-1.56
2022-12-14T08:21:48.627Z,-1.66
2022-12-14T08:24:17.892Z,-1.68
2022-12-14T08:26:49.078Z,-1.65
2022-12-14T08:29:19.934Z,-1.72
2022-12-14T08:31:48.406Z,-1.68
2022-12-14T08:34:22.120Z,-1.85
2022-12-14T08:36:51.001Z,-1.94
2022-12-14T08:39:19.369Z,-2.15
2022-12-14T08:41:47.758Z,-2.00
2022-12-14T08:44:18.266Z,-1.92
2022-12-14T08:46:48.127Z,-1.98
2022-12-14T08:49:17.194Z,-1.96
2022-12-14T08:51:45.569Z,-2.04
2022-12-14T08:54:13.974Z,-2.03
2022-12-14T08:56:42.329Z,-1.97
2022-12-14T08:59:24.506Z,-1.94
2022-12-14T09:02:00.616Z,-2.05
2022-12-14T09:04:29.280Z,-2.12
2022-12-14T09:06:57.941Z,-2.21
2022-12-14T09:09:26.521Z,-2.40
2022-12-14T09:11:54.862Z,-2.44
2022-12-14T09:14:23.241Z,-2.50
2022-12-14T09:16:51.643Z,-2.43
2022-12-14T09:19:21.412Z,-2.51
2022-12-14T09:21:49.864Z,-2.45
2022-12-14T09:24:18.337Z,-2.31
2022-12-14T09:26:47.140Z,-2.19
2022-12-14T09:29:17.393Z,-2.34
2022-12-14T09:31:46.224Z,-2.36
2022-12-14T09:34:14.745Z,-2.18
2022-12-14T09:36:44.554Z,-2.22
2022-12-14T09:39:14.981Z,-2.33
2022-12-14T09:42:04.698Z,-2.38
2022-12-14T09:44:47.545Z,-2.25
2022-12-14T09:47:20.607Z,-2.17
2022-12-14T09:49:53.113Z,-2.23
2022-12-14T09:52:35.629Z,-2.20
2022-12-14T09:55:10.728Z,-2.14
2022-12-14T09:57:41.094Z,-2.11
2022-12-14T10:00:18.078Z,-2.08
2022-12-14T10:03:14.813Z,-2.18
2022-12-14T10:06:08.957Z,-2.17
2022-12-14T10:08:49.512Z,-2.04
2022-12-14T10:11:31.405Z,-1.94
2022-12-14T10:14:12.732Z,-2.13
2022-12-14T10:16:52.823Z,-2.26
2022-12-14T10:19:35.129Z,-2.17
2022-12-14T10:22:12.117Z,-2.03
2022-12-14T10:24:46.331Z,-2.05
2022-12-14T10:27:23.663Z,-2.13
2022-12-14T10:30:01.117Z,-2.19
2022-12-14T10:32:36.248Z,-2.17
2022-12-14T10:35:14.885Z,-2.12
2022-12-14T10:37:47.062Z,-2.14
2022-12-14T10:40:32.957Z,-2.00
2022-12-14T10:43:29.878Z,-2.01
2022-12-14T10:46:13.413Z,-1.98
2022-12-14T10:48:54.953Z,-1.88
2022-12-14T10:51:30.108Z,-1.93
2022-12-14T10:54:04.894Z,-2.04
2022-12-14T10:56:38.292Z,-1.97
2022-12-14T10:59:27.459Z,-1.95
2022-12-14T11:02:04.229Z,-1.83
2022-12-14T11:04:40.708Z,-1.75
2022-12-14T11:07:12.443Z,-1.75
2022-12-14T11:09:41.398Z,-1.65
2022-12-14T11:12:23.417Z,-1.69
2022-12-14T11:15:00.071Z,-1.68
2022-12-14T11:17:35.857Z,-1.53
2022-12-14T11:20:26.495Z,-1.62
2022-12-14T11:22:57.492Z,-1.85
2022-12-14T11:25:39.336Z,-1.92
2022-12-14T11:28:32.779Z,-1.98
2022-12-14T11:31:08.126Z,-2.01
2022-12-14T11:33:40.369Z,-2.00
2022-12-14T11:36:10.613Z,-1.91
2022-12-14T11:38:38.967Z,-1.82
2022-12-14T11:41:11.514Z,-1.75
2022-12-14T11:43:41.964Z,-1.75
2022-12-14T11:46:10.535Z,-1.82
2022-12-14T11:48:49.265Z,-1.74
2022-12-14T11:51:17.777Z,-1.66
2022-12-14T11:54:03.199Z,-1.61
2022-12-14T11:56:31.737Z,-1.90
2022-12-14T11:59:01.651Z,-1.75
2022-12-14T12:01:30.094Z,-1.85
2022-12-14T12:04:00.658Z,-1.81
2022-12-14T12:06:31.249Z,-1.83
2022-12-14T12:09:02.036Z,-1.74
2022-12-14T12:11:33.816Z,-1.69
2022-12-14T12:14:26.534Z,-1.49
2022-12-14T12:16:55.201Z,-1.45
2022-12-14T12:19:31.721Z,-1.42
2022-12-14T12:22:03.233Z,-1.45
2022-12-14T12:24:41.648Z,-1.63
2022-12-14T12:27:19.864Z,-1.70
2022-12-14T12:29:56.258Z,-1.53
2022-12-14T12:32:27.813Z,-1.67
2022-12-14T12:35:11.575Z,-1.45
2022-12-14T12:37:45.278Z,-1.55
2022-12-14T12:40:21.344Z,-1.81
2022-12-14T12:42:55.700Z,-1.83
2022-12-14T12:45:31.853Z,-1.73
2022-12-14T12:48:07.125Z,-1.77
2022-12-14T12:50:41.159Z,-1.73
2022-12-14T12:53:15.789Z,-1.66
2022-12-14T12:55:49.009Z,-1.66
2022-12-14T12:58:24.908Z,-1.76
2022-12-14T13:00:59.782Z,-1.82
2022-12-14T13:03:32.423Z,-1.69
2022-12-14T13:06:11.796Z,-1.57
2022-12-14T13:08:43.277Z,-1.62
2022-12-14T13:11:27.916Z,-1.69
2022-12-14T13:14:02.920Z,-1.56
2022-12-14T13:16:36.374Z,-1.53
2022-12-14T13:22:05.916Z,-1.28
2022-12-14T13:24:37.372Z,-1.41
2022-12-14T13:27:52.000Z,-1.37
2022-12-14T13:30:29.270Z,-1.26
2022-12-14T13:33:19.635Z,-1.39
2022-12-14T13:36:33.630Z,-1.40
2022-12-14T13:39:34.517Z,-1.43
2022-12-14T13:42:08.421Z,-1.23
2022-12-14T13:44:55.063Z,-1.20
2022-12-14T13:47:29.027Z,-1.00
2022-12-14T13:50:34.670Z,-1.17
2022-12-14T13:52:51.219Z,-1.07
2022-12-14T13:55:41.689Z,-1.13
2022-12-14T13:58:19.709Z,-1.03
2022-12-14T14:01:01.155Z,-1.22
2022-12-14T14:03:52.159Z,-1.08
2022-12-14T14:06:39.633Z,-1.30
2022-12-14T14:10:00.827Z,-1.20
2022-12-14T14:12:36.983Z,-1.06
2022-12-14T14:15:26.375Z,-1.16
2022-12-14T14:17:56.245Z,-1.14
2022-12-14T14:20:40.424Z,-1.14
2022-12-14T14:23:34.171Z,-1.19
2022-12-14T14:26:24.595Z,-1.21
2022-12-14T14:29:27.283Z,-1.20
2022-12-14T14:31:59.463Z,-1.18
2022-12-14T14:34:50.114Z,-1.18
2022-12-14T14:37:31.786Z,-1.09
2022-12-14T14:40:20.673Z,-1.06
2022-12-14T14:42:57.474Z,-1.11
2022-12-14T14:45:40.188Z,-1.16
2022-12-14T14:48:24.006Z,-1.23
2022-12-14T14:51:06.931Z,-1.24
2022-12-14T14:53:36.351Z,-1.29
2022-12-14T14:56:39.852Z,-1.41
2022-12-14T14:59:41.678Z,-1.63
2022-12-14T15:02:35.526Z,-1.70
2022-12-14T15:07:58.652Z,-1.74
2022-12-14T15:10:35.719Z,-1.73
2022-12-14T15:13:09.897Z,-1.76
2022-12-14T15:15:42.666Z,-1.79
2022-12-14T15:18:21.840Z,-1.41
2022-12-14T15:20:59.308Z,-1.17
2022-12-14T15:23:34.624Z,-0.11
2022-12-14T15:26:16.254Z,-0.08
2022-12-14T15:28:51.031Z,0.57
2022-12-14T15:31:28.658Z,0.70
2022-12-14T15:33:57.374Z,-0.07
2022-12-14T15:36:30.542Z,-0.55
2022-12-14T15:38:59.929Z,-0.94
2022-12-14T15:41:31.459Z,-1.24
2022-12-14T15:44:01.848Z,-1.40
2022-12-14T15:46:34.345Z,-1.52
2022-12-14T15:49:08.211Z,-1.58
2022-12-14T15:51:39.858Z,-1.58
2022-12-14T15:54:16.264Z,-1.64
2022-12-14T15:56:48.597Z,-1.61
2022-12-14T15:59:22.696Z,-1.61
2022-12-14T16:02:01.544Z,-1.68
2022-12-14T16:04:35.273Z,-1.73
2022-12-14T16:07:09.312Z,-1.79
2022-12-14T16:09:41.751Z,-1.78
2022-12-14T16:12:18.645Z,-1.79
2022-12-14T16:14:56.505Z,-1.82
2022-12-14T16:17:30.419Z,-1.85
2022-12-14T16:20:01.306Z,-1.87
2022-12-14T16:22:31.118Z,-1.89
2022-12-14T16:25:19.172Z,-1.87
2022-12-14T16:27:50.898Z,-1.88
2022-12-14T16:30:30.689Z,-1.93
2022-12-14T16:33:17.783Z,-1.93
2022-12-14T16:35:48.071Z,-1.95
2022-12-14T16:38:18.521Z,-1.91
2022-12-14T16:40:57.247Z,-1.88
2022-12-14T16:43:31.401Z,-1.84
2022-12-14T16:46:18.568Z,-1.78
2022-12-14T16:49:15.149Z,-1.72
2022-12-14T16:52:06.270Z,-1.65
2022-12-14T16:54:34.747Z,-1.66
2022-12-14T16:57:06.615Z,-1.66
2022-12-14T16:59:42.952Z,-1.69
2022-12-14T17:02:30.368Z,-1.69
2022-12-14T17:05:01.529Z,-1.70
2022-12-14T17:07:32.961Z,-1.73
2022-12-14T17:10:01.451Z,-1.74
2022-12-14T17:12:30.019Z,-1.75
2022-12-14T17:14:59.020Z,-1.73
2022-12-14T17:17:34.369Z,-1.74
2022-12-14T17:20:07.954Z,-1.75
2022-12-14T17:22:39.085Z,-1.76
2022-12-14T17:25:08.211Z,-1.77
2022-12-14T17:27:36.560Z,-1.77
2022-12-14T17:30:08.481Z,-1.78
2022-12-14T17:32:38.353Z,-1.77
2022-12-14T17:35:09.087Z,-1.82
2022-12-14T17:37:37.817Z,-1.80
2022-12-14T17:40:07.715Z,-1.84
2022-12-14T17:42:38.836Z,-1.83
2022-12-14T17:45:18.417Z,-1.83
2022-12-14T17:47:48.846Z,-1.84
2022-12-14T17:50:19.734Z,-1.81
2022-12-14T17:52:50.296Z,-1.84
2022-12-14T17:55:22.123Z,-1.81
2022-12-14T17:57:51.219Z,-1.82
2022-12-14T18:00:40.001Z,-1.80
2022-12-14T18:03:12.078Z,-1.79
2022-12-14T18:05:48.149Z,-1.80
2022-12-14T18:08:17.366Z,-1.78
2022-12-14T18:10:47.012Z,-1.80
2022-12-14T18:13:15.844Z,-1.83
2022-12-14T18:15:50.025Z,-1.83
2022-12-14T18:18:21.503Z,-1.85
2022-12-14T18:20:52.921Z,-1.85
2022-12-14T18:23:23.293Z,-1.90
2022-12-14T18:25:53.920Z,-1.92
2022-12-14T18:28:22.861Z,-1.93
2022-12-14T18:30:55.412Z,-1.94
2022-12-14T18:33:30.278Z,-2.00
2022-12-14T18:35:59.467Z,-2.06
2022-12-14T18:38:27.986Z,-2.06
2022-12-14T18:41:00.268Z,-2.03
2022-12-14T18:43:30.071Z,-2.03
2022-12-14T18:46:00.212Z,-2.00
2022-12-14T18:48:30.082Z,-1.90
2022-12-14T18:50:58.598Z,-1.98
2022-12-14T18:53:28.133Z,-2.08
2022-12-14T18:55:56.904Z,-2.04
2022-12-14T18:58:27.704Z,-2.05
2022-12-14T19:00:59.760Z,-2.06
2022-12-14T19:03:33.578Z,-2.02
2022-12-14T19:06:42.295Z,-1.99
2022-12-14T19:08:57.099Z,-1.99
2022-12-14T19:11:31.826Z,-2.07
2022-12-14T19:14:01.457Z,-2.02
2022-12-14T19:16:29.884Z,-2.08
2022-12-14T19:18:59.973Z,-2.05
2022-12-14T19:21:29.703Z,-2.06
2022-12-14T19:23:59.621Z,-2.09
2022-12-14T19:26:29.239Z,-2.07
2022-12-14T19:28:58.536Z,-2.03
2022-12-14T19:31:27.071Z,-1.99
2022-12-14T19:33:55.824Z,-2.10
2022-12-14T19:36:26.647Z,-2.18
2022-12-14T19:38:55.087Z,-2.17
2022-12-14T19:41:24.221Z,-2.15
2022-12-14T19:43:52.552Z,-2.15
2022-12-14T19:46:20.954Z,-2.14
2022-12-14T19:48:49.290Z,-2.17
2022-12-14T19:51:19.411Z,-2.15
2022-12-14T19:53:49.312Z,-2.18
2022-12-14T19:56:19.039Z,-2.21
2022-12-14T19:58:48.185Z,-2.19
2022-12-14T20:01:18.353Z,-2.23
2022-12-14T20:03:47.087Z,-2.18
2022-12-14T20:06:15.587Z,-2.19
2022-12-14T20:08:45.863Z,-2.20
2022-12-14T20:11:20.461Z,-2.12
2022-12-14T20:13:54.880Z,-2.11
2022-12-14T20:16:26.539Z,-2.14
2022-12-14T20:18:55.859Z,-2.17
2022-12-14T20:21:26.600Z,-2.28
2022-12-14T20:23:54.952Z,-2.33
2022-12-14T20:26:25.428Z,-2.37
2022-12-14T20:28:56.610Z,-2.40
2022-12-14T20:31:26.101Z,-2.36
2022-12-14T20:33:54.796Z,-2.33
2022-12-14T20:36:23.271Z,-2.34
2022-12-14T20:38:56.089Z,-2.33
2022-12-14T20:41:26.828Z,-2.34
2022-12-14T20:43:55.786Z,-2.28
2022-12-14T20:46:30.814Z,-2.24
2022-12-14T20:49:01.977Z,-2.25
2022-12-14T20:51:32.435Z,-2.26
2022-12-14T20:54:01.859Z,-2.27
2022-12-14T20:56:31.741Z,-2.27
2022-12-14T20:59:00.630Z,-2.28
2022-12-14T21:01:29.414Z,-2.27
2022-12-14T21:04:00.984Z,-2.28
2022-12-14T21:06:29.770Z,-2.28
2022-12-14T21:09:06.267Z,-2.29
2022-12-14T21:11:55.632Z,-2.28
2022-12-14T21:14:26.919Z,-2.30
2022-12-14T21:16:56.055Z,-2.26
2022-12-14T21:19:24.700Z,-2.21
2022-12-14T21:21:54.219Z,-2.18
2022-12-14T21:27:19.176Z,-2.29
2022-12-14T21:29:48.350Z,-2.37
2022-12-14T21:32:18.228Z,-2.43
2022-12-14T21:34:47.510Z,-2.47
2022-12-14T21:37:16.771Z,-2.58
2022-12-14T21:39:51.955Z,-2.68
2022-12-14T21:42:24.215Z,-2.77
2022-12-14T21:44:54.422Z,-2.79
2022-12-14T21:47:25.945Z,-2.90
2022-12-14T21:49:54.526Z,-2.92
2022-12-14T21:52:26.510Z,-2.95
2022-12-14T21:54:54.853Z,-3.25
2022-12-14T21:57:49.643Z,-3.23
2022-12-14T22:00:20.606Z,-3.26
2022-12-14T22:02:49.686Z,-3.33
2022-12-14T22:05:18.594Z,-3.45
2022-12-14T22:07:47.025Z,-3.41
2022-12-14T22:10:18.809Z,-3.53
2022-12-14T22:12:52.740Z,-3.59
2022-12-14T22:15:21.163Z,-3.58
2022-12-14T22:17:51.814Z,-3.69
2022-12-14T22:20:20.243Z,-3.67
2022-12-14T22:22:48.551Z,-3.58
2022-12-14T22:25:17.124Z,-3.71
2022-12-14T22:27:49.549Z,-3.69
2022-12-14T22:30:19.957Z,-3.67
2022-12-14T22:32:48.335Z,-3.63
2022-12-14T22:35:18.109Z,-3.73
2022-12-14T22:37:46.523Z,-3.80
2022-12-14T22:40:15.311Z,-3.83
2022-12-14T22:42:43.826Z,-3.88
2022-12-14T22:45:12.425Z,-3.91
2022-12-14T22:47:42.162Z,-3.89
2022-12-14T22:50:11.855Z,-3.87
2022-12-14T22:52:40.387Z,-3.86
2022-12-14T22:55:10.053Z,-3.98
2022-12-14T22:57:41.825Z,-3.92
2022-12-14T23:00:15.888Z,-3.97
2022-12-14T23:02:48.190Z,-3.85
2022-12-14T23:05:17.922Z,-3.80
2022-12-14T23:07:46.333Z,-3.88
2022-12-14T23:10:32.609Z,-3.87
2022-12-14T23:13:18.710Z,-3.83
2022-12-14T23:16:04.752Z,-3.90
2022-12-14T23:18:51.907Z,-4.01
2022-12-14T23:21:38.489Z,-4.12
2022-12-14T23:24:26.408Z,-4.08
2022-12-14T23:27:12.438Z,-4.11
2022-12-14T23:29:58.369Z,-4.12
2022-12-14T23:32:44.240Z,-4.13
2022-12-14T23:35:31.288Z,-4.13
2022-12-14T23:38:23.268Z,-4.16
2022-12-14T23:41:09.234Z,-4.17
2022-12-14T23:43:55.628Z,-4.22
2022-12-14T23:46:41.730Z,-4.21
2022-12-14T23:49:28.130Z,-4.15
2022-12-14T23:52:15.210Z,-4.17
2022-12-14T23:55:01.265Z,-4.08
2022-12-14T23:57:47.142Z,-4.02
